sensor_id;sensor_type;location;lat;lon;timestamp;P1;durP1;ratioP1;P2;durP2;ratioP2
10523;SDS011;5310;48.638;9.060;2023-04-24T00:00:45;0.70;;;0.70;;
10523;SDS011;5310;48.638;9.060;2023-04-24T00:03:12;0.70;;;0.70;;
10523;SDS011;5310;48.638;9.060;2023-04-24T00:05:38;0.70;;;0.70;;
10523;SDS011;5310;48.638;9.060;2023-04-24T00:08:05;0.70;;;0.70;;
10523;SDS011;5310;48.638;9.060;2023-04-24T00:10:31;0.80;;;0.80;;
10523;SDS011;5310;48.638;9.060;2023-04-24T00:12:57;0.77;;;0.77;;
10523;SDS011;5310;48.638;9.060;2023-04-24T00:15:23;0.70;;;0.70;;
10523;SDS011;5310;48.638;9.060;2023-04-24T00:17:49;0.70;;;0.70;;
10523;SDS011;5310;48.638;9.060;2023-04-24T00:20:15;0.60;;;0.60;;
10523;SDS011;5310;48.638;9.060;2023-04-24T00:22:41;0.77;;;0.77;;
10523;SDS011;5310;48.638;9.060;2023-04-24T00:25:07;0.70;;;0.70;;
10523;SDS011;5310;48.638;9.060;2023-04-24T00:27:34;0.70;;;0.70;;
10523;SDS011;5310;48.638;9.060;2023-04-24T00:30:02;0.70;;;0.70;;
10523;SDS011;5310;48.638;9.060;2023-04-24T00:32:28;0.80;;;0.80;;
10523;SDS011;5310;48.638;9.060;2023-04-24T00:34:54;0.80;;;0.80;;
10523;SDS011;5310;48.638;9.060;2023-04-24T00:37:20;0.70;;;0.70;;
10523;SDS011;5310;48.638;9.060;2023-04-24T00:39:46;0.70;;;0.70;;
10523;SDS011;5310;48.638;9.060;2023-04-24T00:42:12;0.70;;;0.70;;
10523;SDS011;5310;48.638;9.060;2023-04-24T00:44:38;0.80;;;0.80;;
10523;SDS011;5310;48.638;9.060;2023-04-24T00:47:04;0.80;;;0.80;;
10523;SDS011;5310;48.638;9.060;2023-04-24T00:49:30;0.70;;;0.70;;
10523;SDS011;5310;48.638;9.060;2023-04-24T00:51:56;0.70;;;0.70;;
10523;SDS011;5310;48.638;9.060;2023-04-24T00:54:24;0.60;;;0.60;;
10523;SDS011;5310;48.638;9.060;2023-04-24T00:56:50;0.60;;;0.60;;
10523;SDS011;5310;48.638;9.060;2023-04-24T00:59:17;0.60;;;0.60;;
10523;SDS011;5310;48.638;9.060;2023-04-24T01:01:43;0.70;;;0.70;;
10523;SDS011;5310;48.638;9.060;2023-04-24T01:04:11;0.60;;;0.60;;
10523;SDS011;5310;48.638;9.060;2023-04-24T01:06:38;0.60;;;0.60;;
10523;SDS011;5310;48.638;9.060;2023-04-24T01:09:05;0.60;;;0.60;;
10523;SDS011;5310;48.638;9.060;2023-04-24T01:11:33;0.70;;;0.70;;
10523;SDS011;5310;48.638;9.060;2023-04-24T01:13:59;0.60;;;0.60;;
10523;SDS011;5310;48.638;9.060;2023-04-24T01:16:25;0.60;;;0.60;;
10523;SDS011;5310;48.638;9.060;2023-04-24T01:18:51;0.60;;;0.60;;
10523;SDS011;5310;48.638;9.060;2023-04-24T01:21:17;0.60;;;0.60;;
10523;SDS011;5310;48.638;9.060;2023-04-24T01:23:44;0.70;;;0.70;;
10523;SDS011;5310;48.638;9.060;2023-04-24T01:26:10;0.63;;;0.63;;
10523;SDS011;5310;48.638;9.060;2023-04-24T01:28:36;0.60;;;0.60;;
10523;SDS011;5310;48.638;9.060;2023-04-24T01:31:02;0.70;;;0.70;;
10523;SDS011;5310;48.638;9.060;2023-04-24T01:33:28;0.70;;;0.70;;
10523;SDS011;5310;48.638;9.060;2023-04-24T01:35:54;0.70;;;0.70;;
10523;SDS011;5310;48.638;9.060;2023-04-24T01:38:21;0.60;;;0.60;;
10523;SDS011;5310;48.638;9.060;2023-04-24T01:40:47;0.70;;;0.70;;
10523;SDS011;5310;48.638;9.060;2023-04-24T01:43:13;0.70;;;0.70;;
10523;SDS011;5310;48.638;9.060;2023-04-24T01:45:39;0.70;;;0.70;;
10523;SDS011;5310;48.638;9.060;2023-04-24T01:48:05;0.60;;;0.60;;
10523;SDS011;5310;48.638;9.060;2023-04-24T01:50:31;0.70;;;0.70;;
10523;SDS011;5310;48.638;9.060;2023-04-24T01:52:57;0.70;;;0.70;;
10523;SDS011;5310;48.638;9.060;2023-04-24T01:55:23;0.70;;;0.70;;
10523;SDS011;5310;48.638;9.060;2023-04-24T01:57:49;0.70;;;0.70;;
10523;SDS011;5310;48.638;9.060;2023-04-24T02:00:15;0.60;;;0.60;;
10523;SDS011;5310;48.638;9.060;2023-04-24T02:02:41;0.70;;;0.70;;
10523;SDS011;5310;48.638;9.060;2023-04-24T02:05:08;0.70;;;0.70;;
10523;SDS011;5310;48.638;9.060;2023-04-24T02:07:34;0.77;;;0.77;;
10523;SDS011;5310;48.638;9.060;2023-04-24T02:10:00;0.70;;;0.70;;
10523;SDS011;5310;48.638;9.060;2023-04-24T02:12:26;0.70;;;0.70;;
10523;SDS011;5310;48.638;9.060;2023-04-24T02:14:53;0.70;;;0.70;;
10523;SDS011;5310;48.638;9.060;2023-04-24T02:17:19;0.70;;;0.70;;
10523;SDS011;5310;48.638;9.060;2023-04-24T02:19:45;0.70;;;0.70;;
10523;SDS011;5310;48.638;9.060;2023-04-24T02:22:11;0.60;;;0.60;;
10523;SDS011;5310;48.638;9.060;2023-04-24T02:24:37;0.70;;;0.70;;
10523;SDS011;5310;48.638;9.060;2023-04-24T02:27:03;0.60;;;0.60;;
10523;SDS011;5310;48.638;9.060;2023-04-24T02:29:30;0.63;;;0.63;;
10523;SDS011;5310;48.638;9.060;2023-04-24T02:31:56;0.70;;;0.70;;
10523;SDS011;5310;48.638;9.060;2023-04-24T02:34:22;0.70;;;0.70;;
10523;SDS011;5310;48.638;9.060;2023-04-24T02:36:51;0.70;;;0.70;;
10523;SDS011;5310;48.638;9.060;2023-04-24T02:39:18;0.60;;;0.60;;
10523;SDS011;5310;48.638;9.060;2023-04-24T02:41:44;0.70;;;0.70;;
10523;SDS011;5310;48.638;9.060;2023-04-24T02:44:10;0.70;;;0.70;;
10523;SDS011;5310;48.638;9.060;2023-04-24T02:46:36;0.60;;;0.60;;
10523;SDS011;5310;48.638;9.060;2023-04-24T02:49:03;0.60;;;0.60;;
10523;SDS011;5310;48.638;9.060;2023-04-24T02:51:29;0.60;;;0.60;;
10523;SDS011;5310;48.638;9.060;2023-04-24T02:53:55;0.70;;;0.70;;
10523;SDS011;5310;48.638;9.060;2023-04-24T02:56:21;0.70;;;0.70;;
10523;SDS011;5310;48.638;9.060;2023-04-24T02:58:47;0.70;;;0.70;;
10523;SDS011;5310;48.638;9.060;2023-04-24T03:01:13;0.70;;;0.70;;
10523;SDS011;5310;48.638;9.060;2023-04-24T03:03:40;0.60;;;0.60;;
10523;SDS011;5310;48.638;9.060;2023-04-24T03:06:06;0.70;;;0.70;;
10523;SDS011;5310;48.638;9.060;2023-04-24T03:08:32;0.70;;;0.70;;
10523;SDS011;5310;48.638;9.060;2023-04-24T03:10:58;0.70;;;0.70;;
10523;SDS011;5310;48.638;9.060;2023-04-24T03:13:24;0.63;;;0.63;;
10523;SDS011;5310;48.638;9.060;2023-04-24T03:15:50;0.63;;;0.63;;
10523;SDS011;5310;48.638;9.060;2023-04-24T03:18:17;0.70;;;0.70;;
10523;SDS011;5310;48.638;9.060;2023-04-24T03:20:45;0.60;;;0.60;;
10523;SDS011;5310;48.638;9.060;2023-04-24T03:23:12;0.70;;;0.70;;
10523;SDS011;5310;48.638;9.060;2023-04-24T03:25:38;0.80;;;0.80;;
10523;SDS011;5310;48.638;9.060;2023-04-24T03:28:04;0.70;;;0.70;;
10523;SDS011;5310;48.638;9.060;2023-04-24T03:30:30;0.60;;;0.60;;
10523;SDS011;5310;48.638;9.060;2023-04-24T03:32:56;0.60;;;0.60;;
10523;SDS011;5310;48.638;9.060;2023-04-24T03:35:22;0.70;;;0.70;;
10523;SDS011;5310;48.638;9.060;2023-04-24T03:37:48;0.70;;;0.70;;
10523;SDS011;5310;48.638;9.060;2023-04-24T03:40:14;0.70;;;0.70;;
10523;SDS011;5310;48.638;9.060;2023-04-24T03:42:40;0.70;;;0.70;;
10523;SDS011;5310;48.638;9.060;2023-04-24T03:45:06;0.70;;;0.70;;
10523;SDS011;5310;48.638;9.060;2023-04-24T03:47:32;0.70;;;0.70;;
10523;SDS011;5310;48.638;9.060;2023-04-24T03:49:58;0.70;;;0.70;;
10523;SDS011;5310;48.638;9.060;2023-04-24T03:52:24;0.70;;;0.70;;
10523;SDS011;5310;48.638;9.060;2023-04-24T03:54:50;0.60;;;0.60;;
10523;SDS011;5310;48.638;9.060;2023-04-24T03:57:16;0.70;;;0.70;;
10523;SDS011;5310;48.638;9.060;2023-04-24T03:59:42;0.80;;;0.80;;
10523;SDS011;5310;48.638;9.060;2023-04-24T04:02:08;0.70;;;0.70;;
10523;SDS011;5310;48.638;9.060;2023-04-24T04:04:34;0.70;;;0.70;;
10523;SDS011;5310;48.638;9.060;2023-04-24T04:07:00;0.70;;;0.70;;
10523;SDS011;5310;48.638;9.060;2023-04-24T04:09:27;0.70;;;0.70;;
10523;SDS011;5310;48.638;9.060;2023-04-24T04:11:53;0.70;;;0.70;;
10523;SDS011;5310;48.638;9.060;2023-04-24T04:14:20;0.80;;;0.80;;
10523;SDS011;5310;48.638;9.060;2023-04-24T04:16:46;0.70;;;0.70;;
10523;SDS011;5310;48.638;9.060;2023-04-24T04:19:12;0.90;;;0.90;;
10523;SDS011;5310;48.638;9.060;2023-04-24T04:21:38;0.70;;;0.70;;
10523;SDS011;5310;48.638;9.060;2023-04-24T04:24:04;0.70;;;0.70;;
10523;SDS011;5310;48.638;9.060;2023-04-24T04:26:30;0.70;;;0.70;;
10523;SDS011;5310;48.638;9.060;2023-04-24T04:28:57;0.70;;;0.70;;
10523;SDS011;5310;48.638;9.060;2023-04-24T04:31:23;0.70;;;0.70;;
10523;SDS011;5310;48.638;9.060;2023-04-24T04:33:49;0.60;;;0.60;;
10523;SDS011;5310;48.638;9.060;2023-04-24T04:36:15;0.80;;;0.80;;
10523;SDS011;5310;48.638;9.060;2023-04-24T04:38:42;0.70;;;0.70;;
10523;SDS011;5310;48.638;9.060;2023-04-24T04:41:09;0.70;;;0.70;;
10523;SDS011;5310;48.638;9.060;2023-04-24T04:43:36;0.70;;;0.70;;
10523;SDS011;5310;48.638;9.060;2023-04-24T04:46:04;0.70;;;0.70;;
10523;SDS011;5310;48.638;9.060;2023-04-24T04:48:31;0.70;;;0.70;;
10523;SDS011;5310;48.638;9.060;2023-04-24T04:50:57;0.70;;;0.70;;
10523;SDS011;5310;48.638;9.060;2023-04-24T04:53:23;0.70;;;0.70;;
10523;SDS011;5310;48.638;9.060;2023-04-24T04:55:51;0.60;;;0.60;;
10523;SDS011;5310;48.638;9.060;2023-04-24T04:58:17;0.70;;;0.70;;
10523;SDS011;5310;48.638;9.060;2023-04-24T05:00:43;0.70;;;0.70;;
10523;SDS011;5310;48.638;9.060;2023-04-24T05:03:09;0.70;;;0.70;;
10523;SDS011;5310;48.638;9.060;2023-04-24T05:05:35;0.70;;;0.70;;
10523;SDS011;5310;48.638;9.060;2023-04-24T05:08:05;0.77;;;0.77;;
10523;SDS011;5310;48.638;9.060;2023-04-24T05:10:31;0.80;;;0.80;;
10523;SDS011;5310;48.638;9.060;2023-04-24T05:12:57;0.67;;;0.67;;
10523;SDS011;5310;48.638;9.060;2023-04-24T05:15:23;0.80;;;0.80;;
10523;SDS011;5310;48.638;9.060;2023-04-24T05:17:49;0.70;;;0.70;;
10523;SDS011;5310;48.638;9.060;2023-04-24T05:20:15;0.70;;;0.70;;
10523;SDS011;5310;48.638;9.060;2023-04-24T05:22:41;0.80;;;0.80;;
10523;SDS011;5310;48.638;9.060;2023-04-24T05:25:08;0.80;;;0.80;;
10523;SDS011;5310;48.638;9.060;2023-04-24T05:27:34;0.77;;;0.77;;
10523;SDS011;5310;48.638;9.060;2023-04-24T05:30:00;0.80;;;0.80;;
10523;SDS011;5310;48.638;9.060;2023-04-24T05:32:26;0.70;;;0.70;;
10523;SDS011;5310;48.638;9.060;2023-04-24T05:34:52;0.80;;;0.80;;
10523;SDS011;5310;48.638;9.060;2023-04-24T05:37:18;0.80;;;0.80;;
10523;SDS011;5310;48.638;9.060;2023-04-24T05:39:44;0.70;;;0.70;;
10523;SDS011;5310;48.638;9.060;2023-04-24T05:42:10;0.80;;;0.80;;
10523;SDS011;5310;48.638;9.060;2023-04-24T05:44:36;0.97;;;0.97;;
10523;SDS011;5310;48.638;9.060;2023-04-24T05:47:02;0.63;;;0.63;;
10523;SDS011;5310;48.638;9.060;2023-04-24T05:49:28;0.70;;;0.70;;
10523;SDS011;5310;48.638;9.060;2023-04-24T05:51:54;0.70;;;0.70;;
10523;SDS011;5310;48.638;9.060;2023-04-24T05:54:20;0.63;;;0.63;;
10523;SDS011;5310;48.638;9.060;2023-04-24T05:56:46;0.70;;;0.70;;
10523;SDS011;5310;48.638;9.060;2023-04-24T05:59:12;0.70;;;0.70;;
10523;SDS011;5310;48.638;9.060;2023-04-24T06:01:38;0.77;;;0.77;;
10523;SDS011;5310;48.638;9.060;2023-04-24T06:04:04;0.70;;;0.70;;
10523;SDS011;5310;48.638;9.060;2023-04-24T06:06:30;0.77;;;0.77;;
10523;SDS011;5310;48.638;9.060;2023-04-24T06:08:57;0.70;;;0.70;;
10523;SDS011;5310;48.638;9.060;2023-04-24T06:11:23;0.80;;;0.80;;
10523;SDS011;5310;48.638;9.060;2023-04-24T06:13:49;0.70;;;0.70;;
10523;SDS011;5310;48.638;9.060;2023-04-24T06:16:16;0.70;;;0.70;;
10523;SDS011;5310;48.638;9.060;2023-04-24T06:18:42;0.70;;;0.70;;
10523;SDS011;5310;48.638;9.060;2023-04-24T06:21:09;0.80;;;0.80;;
10523;SDS011;5310;48.638;9.060;2023-04-24T06:23:35;0.70;;;0.70;;
10523;SDS011;5310;48.638;9.060;2023-04-24T06:26:01;0.70;;;0.70;;
10523;SDS011;5310;48.638;9.060;2023-04-24T06:28:27;0.70;;;0.70;;
10523;SDS011;5310;48.638;9.060;2023-04-24T06:30:53;0.70;;;0.70;;
10523;SDS011;5310;48.638;9.060;2023-04-24T06:33:19;0.60;;;0.60;;
10523;SDS011;5310;48.638;9.060;2023-04-24T06:35:45;0.60;;;0.60;;
10523;SDS011;5310;48.638;9.060;2023-04-24T06:38:11;0.60;;;0.60;;
10523;SDS011;5310;48.638;9.060;2023-04-24T06:40:37;0.60;;;0.60;;
10523;SDS011;5310;48.638;9.060;2023-04-24T06:43:03;0.60;;;0.60;;
10523;SDS011;5310;48.638;9.060;2023-04-24T06:45:31;0.50;;;0.50;;
10523;SDS011;5310;48.638;9.060;2023-04-24T06:47:57;0.50;;;0.50;;
10523;SDS011;5310;48.638;9.060;2023-04-24T06:50:24;0.57;;;0.57;;
10523;SDS011;5310;48.638;9.060;2023-04-24T06:52:50;0.60;;;0.60;;
10523;SDS011;5310;48.638;9.060;2023-04-24T06:55:16;0.60;;;0.60;;
10523;SDS011;5310;48.638;9.060;2023-04-24T06:57:42;0.60;;;0.60;;
10523;SDS011;5310;48.638;9.060;2023-04-24T07:00:09;0.50;;;0.50;;
10523;SDS011;5310;48.638;9.060;2023-04-24T07:02:35;0.50;;;0.50;;
10523;SDS011;5310;48.638;9.060;2023-04-24T07:05:02;0.60;;;0.60;;
10523;SDS011;5310;48.638;9.060;2023-04-24T07:07:28;0.60;;;0.60;;
10523;SDS011;5310;48.638;9.060;2023-04-24T07:09:54;0.60;;;0.60;;
10523;SDS011;5310;48.638;9.060;2023-04-24T07:12:21;0.63;;;0.63;;
10523;SDS011;5310;48.638;9.060;2023-04-24T07:14:47;0.50;;;0.50;;
10523;SDS011;5310;48.638;9.060;2023-04-24T07:17:13;0.53;;;0.53;;
10523;SDS011;5310;48.638;9.060;2023-04-24T07:19:39;0.60;;;0.60;;
10523;SDS011;5310;48.638;9.060;2023-04-24T07:22:05;0.60;;;0.60;;
10523;SDS011;5310;48.638;9.060;2023-04-24T07:24:31;0.70;;;0.70;;
10523;SDS011;5310;48.638;9.060;2023-04-24T07:26:57;0.60;;;0.60;;
10523;SDS011;5310;48.638;9.060;2023-04-24T07:29:24;0.60;;;0.60;;
10523;SDS011;5310;48.638;9.060;2023-04-24T07:31:50;0.60;;;0.60;;
10523;SDS011;5310;48.638;9.060;2023-04-24T07:34:16;0.60;;;0.60;;
10523;SDS011;5310;48.638;9.060;2023-04-24T07:36:42;0.50;;;0.50;;
10523;SDS011;5310;48.638;9.060;2023-04-24T07:39:08;0.50;;;0.50;;
10523;SDS011;5310;48.638;9.060;2023-04-24T07:41:34;0.60;;;0.60;;
10523;SDS011;5310;48.638;9.060;2023-04-24T07:44:00;0.50;;;0.50;;
10523;SDS011;5310;48.638;9.060;2023-04-24T07:46:26;0.50;;;0.50;;
10523;SDS011;5310;48.638;9.060;2023-04-24T07:48:54;0.50;;;0.50;;
10523;SDS011;5310;48.638;9.060;2023-04-24T07:51:21;0.60;;;0.60;;
10523;SDS011;5310;48.638;9.060;2023-04-24T07:53:47;0.60;;;0.60;;
10523;SDS011;5310;48.638;9.060;2023-04-24T07:56:13;0.60;;;0.60;;
10523;SDS011;5310;48.638;9.060;2023-04-24T07:58:39;0.50;;;0.50;;
10523;SDS011;5310;48.638;9.060;2023-04-24T08:01:06;0.60;;;0.60;;
10523;SDS011;5310;48.638;9.060;2023-04-24T08:03:32;0.50;;;0.50;;
10523;SDS011;5310;48.638;9.060;2023-04-24T08:05:58;0.60;;;0.60;;
10523;SDS011;5310;48.638;9.060;2023-04-24T08:08:27;0.60;;;0.60;;
10523;SDS011;5310;48.638;9.060;2023-04-24T08:10:53;0.60;;;0.60;;
10523;SDS011;5310;48.638;9.060;2023-04-24T08:13:22;0.60;;;0.60;;
10523;SDS011;5310;48.638;9.060;2023-04-24T08:15:48;0.60;;;0.60;;
10523;SDS011;5310;48.638;9.060;2023-04-24T08:18:14;0.57;;;0.57;;
10523;SDS011;5310;48.638;9.060;2023-04-24T08:20:41;0.60;;;0.60;;
10523;SDS011;5310;48.638;9.060;2023-04-24T08:23:07;0.63;;;0.63;;
10523;SDS011;5310;48.638;9.060;2023-04-24T08:25:33;0.70;;;0.70;;
10523;SDS011;5310;48.638;9.060;2023-04-24T08:28:00;0.60;;;0.60;;
10523;SDS011;5310;48.638;9.060;2023-04-24T08:30:26;0.60;;;0.60;;
10523;SDS011;5310;48.638;9.060;2023-04-24T08:32:52;0.60;;;0.60;;
10523;SDS011;5310;48.638;9.060;2023-04-24T08:35:18;0.50;;;0.50;;
10523;SDS011;5310;48.638;9.060;2023-04-24T08:37:44;0.50;;;0.50;;
10523;SDS011;5310;48.638;9.060;2023-04-24T08:40:12;0.60;;;0.60;;
10523;SDS011;5310;48.638;9.060;2023-04-24T08:42:41;0.50;;;0.50;;
10523;SDS011;5310;48.638;9.060;2023-04-24T08:45:08;0.70;;;0.70;;
10523;SDS011;5310;48.638;9.060;2023-04-24T08:47:35;0.50;;;0.50;;
10523;SDS011;5310;48.638;9.060;2023-04-24T08:50:02;0.50;;;0.50;;
10523;SDS011;5310;48.638;9.060;2023-04-24T08:52:30;0.50;;;0.50;;
10523;SDS011;5310;48.638;9.060;2023-04-24T08:54:57;0.50;;;0.50;;
10523;SDS011;5310;48.638;9.060;2023-04-24T08:57:24;0.60;;;0.60;;
10523;SDS011;5310;48.638;9.060;2023-04-24T08:59:50;0.60;;;0.60;;
10523;SDS011;5310;48.638;9.060;2023-04-24T09:02:17;0.53;;;0.53;;
10523;SDS011;5310;48.638;9.060;2023-04-24T09:04:43;0.50;;;0.50;;
10523;SDS011;5310;48.638;9.060;2023-04-24T09:07:10;0.60;;;0.60;;
10523;SDS011;5310;48.638;9.060;2023-04-24T09:09:37;0.50;;;0.50;;
10523;SDS011;5310;48.638;9.060;2023-04-24T09:12:04;0.50;;;0.50;;
10523;SDS011;5310;48.638;9.060;2023-04-24T09:14:31;0.60;;;0.60;;
10523;SDS011;5310;48.638;9.060;2023-04-24T09:16:57;0.50;;;0.50;;
10523;SDS011;5310;48.638;9.060;2023-04-24T09:19:23;0.60;;;0.60;;
10523;SDS011;5310;48.638;9.060;2023-04-24T09:21:49;0.50;;;0.50;;
10523;SDS011;5310;48.638;9.060;2023-04-24T09:24:19;0.50;;;0.50;;
10523;SDS011;5310;48.638;9.060;2023-04-24T09:26:48;0.50;;;0.50;;
10523;SDS011;5310;48.638;9.060;2023-04-24T09:29:17;0.53;;;0.53;;
10523;SDS011;5310;48.638;9.060;2023-04-24T09:31:44;0.57;;;0.57;;
10523;SDS011;5310;48.638;9.060;2023-04-24T09:34:10;0.50;;;0.50;;
10523;SDS011;5310;48.638;9.060;2023-04-24T09:36:37;0.50;;;0.50;;
10523;SDS011;5310;48.638;9.060;2023-04-24T09:39:07;0.60;;;0.60;;
10523;SDS011;5310;48.638;9.060;2023-04-24T09:41:35;0.50;;;0.50;;
10523;SDS011;5310;48.638;9.060;2023-04-24T09:44:19;0.50;;;0.50;;
10523;SDS011;5310;48.638;9.060;2023-04-24T09:46:49;0.60;;;0.60;;
10523;SDS011;5310;48.638;9.060;2023-04-24T09:49:16;0.60;;;0.60;;
10523;SDS011;5310;48.638;9.060;2023-04-24T09:51:42;0.47;;;0.47;;
10523;SDS011;5310;48.638;9.060;2023-04-24T09:54:15;0.50;;;0.50;;
10523;SDS011;5310;48.638;9.060;2023-04-24T09:56:42;0.50;;;0.50;;
10523;SDS011;5310;48.638;9.060;2023-04-24T09:59:09;0.50;;;0.50;;
10523;SDS011;5310;48.638;9.060;2023-04-24T10:01:35;0.57;;;0.57;;
10523;SDS011;5310;48.638;9.060;2023-04-24T10:04:03;0.40;;;0.40;;
10523;SDS011;5310;48.638;9.060;2023-04-24T10:06:30;0.50;;;0.50;;
10523;SDS011;5310;48.638;9.060;2023-04-24T10:08:56;0.50;;;0.50;;
10523;SDS011;5310;48.638;9.060;2023-04-24T10:11:23;0.50;;;0.50;;
10523;SDS011;5310;48.638;9.060;2023-04-24T10:13:49;0.50;;;0.50;;
10523;SDS011;5310;48.638;9.060;2023-04-24T10:16:16;0.50;;;0.50;;
10523;SDS011;5310;48.638;9.060;2023-04-24T10:18:42;0.50;;;0.50;;
10523;SDS011;5310;48.638;9.060;2023-04-24T10:21:08;0.57;;;0.57;;
10523;SDS011;5310;48.638;9.060;2023-04-24T10:23:34;0.50;;;0.50;;
10523;SDS011;5310;48.638;9.060;2023-04-24T10:26:01;0.40;;;0.40;;
10523;SDS011;5310;48.638;9.060;2023-04-24T10:28:27;0.50;;;0.50;;
10523;SDS011;5310;48.638;9.060;2023-04-24T10:30:55;0.40;;;0.40;;
10523;SDS011;5310;48.638;9.060;2023-04-24T10:33:22;0.40;;;0.40;;
10523;SDS011;5310;48.638;9.060;2023-04-24T10:35:48;0.50;;;0.50;;
10523;SDS011;5310;48.638;9.060;2023-04-24T10:38:18;0.40;;;0.40;;
10523;SDS011;5310;48.638;9.060;2023-04-24T10:40:49;0.40;;;0.40;;
10523;SDS011;5310;48.638;9.060;2023-04-24T10:43:16;0.50;;;0.50;;
10523;SDS011;5310;48.638;9.060;2023-04-24T10:45:42;0.40;;;0.40;;
10523;SDS011;5310;48.638;9.060;2023-04-24T10:48:26;0.40;;;0.40;;
10523;SDS011;5310;48.638;9.060;2023-04-24T10:50:52;0.40;;;0.40;;
10523;SDS011;5310;48.638;9.060;2023-04-24T10:53:19;0.40;;;0.40;;
10523;SDS011;5310;48.638;9.060;2023-04-24T10:55:50;0.50;;;0.50;;
10523;SDS011;5310;48.638;9.060;2023-04-24T10:58:16;0.50;;;0.50;;
10523;SDS011;5310;48.638;9.060;2023-04-24T11:00:55;0.40;;;0.40;;
10523;SDS011;5310;48.638;9.060;2023-04-24T11:05:55;0.60;;;0.60;;
10523;SDS011;5310;48.638;9.060;2023-04-24T11:08:31;0.50;;;0.50;;
10523;SDS011;5310;48.638;9.060;2023-04-24T11:10:59;0.60;;;0.60;;
10523;SDS011;5310;48.638;9.060;2023-04-24T11:13:26;0.40;;;0.40;;
10523;SDS011;5310;48.638;9.060;2023-04-24T11:18:38;0.50;;;0.50;;
10523;SDS011;5310;48.638;9.060;2023-04-24T11:21:17;0.40;;;0.40;;
10523;SDS011;5310;48.638;9.060;2023-04-24T11:23:44;0.50;;;0.50;;
10523;SDS011;5310;48.638;9.060;2023-04-24T11:26:11;0.40;;;0.40;;
10523;SDS011;5310;48.638;9.060;2023-04-24T11:28:43;0.40;;;0.40;;
10523;SDS011;5310;48.638;9.060;2023-04-24T11:34:08;0.57;;;0.57;;
10523;SDS011;5310;48.638;9.060;2023-04-24T11:36:34;0.50;;;0.50;;
10523;SDS011;5310;48.638;9.060;2023-04-24T11:39:00;0.50;;;0.50;;
10523;SDS011;5310;48.638;9.060;2023-04-24T11:41:26;0.40;;;0.40;;
10523;SDS011;5310;48.638;9.060;2023-04-24T11:43:53;0.60;;;0.60;;
10523;SDS011;5310;48.638;9.060;2023-04-24T11:46:23;0.50;;;0.50;;
10523;SDS011;5310;48.638;9.060;2023-04-24T11:48:48;0.50;;;0.50;;
10523;SDS011;5310;48.638;9.060;2023-04-24T11:51:14;0.50;;;0.50;;
10523;SDS011;5310;48.638;9.060;2023-04-24T11:53:40;0.60;;;0.60;;
10523;SDS011;5310;48.638;9.060;2023-04-24T11:56:08;0.40;;;0.40;;
10523;SDS011;5310;48.638;9.060;2023-04-24T11:58:35;0.50;;;0.50;;
10523;SDS011;5310;48.638;9.060;2023-04-24T12:01:01;0.60;;;0.60;;
10523;SDS011;5310;48.638;9.060;2023-04-24T12:03:27;0.50;;;0.50;;
10523;SDS011;5310;48.638;9.060;2023-04-24T12:06:04;0.50;;;0.50;;
10523;SDS011;5310;48.638;9.060;2023-04-24T12:08:31;0.57;;;0.57;;
10523;SDS011;5310;48.638;9.060;2023-04-24T12:10:57;0.60;;;0.60;;
10523;SDS011;5310;48.638;9.060;2023-04-24T12:13:25;0.50;;;0.50;;
10523;SDS011;5310;48.638;9.060;2023-04-24T12:15:51;0.60;;;0.60;;
10523;SDS011;5310;48.638;9.060;2023-04-24T12:18:17;0.60;;;0.60;;
10523;SDS011;5310;48.638;9.060;2023-04-24T12:20:43;0.70;;;0.70;;
10523;SDS011;5310;48.638;9.060;2023-04-24T12:23:09;0.50;;;0.50;;
10523;SDS011;5310;48.638;9.060;2023-04-24T12:25:35;0.60;;;0.60;;
10523;SDS011;5310;48.638;9.060;2023-04-24T12:30:31;0.60;;;0.60;;
10523;SDS011;5310;48.638;9.060;2023-04-24T12:32:58;0.50;;;0.50;;
10523;SDS011;5310;48.638;9.060;2023-04-24T12:35:25;0.50;;;0.50;;
10523;SDS011;5310;48.638;9.060;2023-04-24T12:37:51;0.60;;;0.60;;
10523;SDS011;5310;48.638;9.060;2023-04-24T12:40:17;0.50;;;0.50;;
10523;SDS011;5310;48.638;9.060;2023-04-24T12:42:44;0.50;;;0.50;;
10523;SDS011;5310;48.638;9.060;2023-04-24T12:48:12;0.40;;;0.40;;
10523;SDS011;5310;48.638;9.060;2023-04-24T12:50:39;0.50;;;0.50;;
10523;SDS011;5310;48.638;9.060;2023-04-24T12:53:05;0.60;;;0.60;;
10523;SDS011;5310;48.638;9.060;2023-04-24T12:55:31;0.50;;;0.50;;
10523;SDS011;5310;48.638;9.060;2023-04-24T12:57:57;0.50;;;0.50;;
10523;SDS011;5310;48.638;9.060;2023-04-24T13:00:23;0.63;;;0.63;;
10523;SDS011;5310;48.638;9.060;2023-04-24T13:02:49;0.60;;;0.60;;
10523;SDS011;5310;48.638;9.060;2023-04-24T13:05:25;0.40;;;0.40;;
10523;SDS011;5310;48.638;9.060;2023-04-24T13:08:00;0.53;;;0.53;;
10523;SDS011;5310;48.638;9.060;2023-04-24T13:10:26;0.50;;;0.50;;
10523;SDS011;5310;48.638;9.060;2023-04-24T13:12:52;0.60;;;0.60;;
10523;SDS011;5310;48.638;9.060;2023-04-24T13:15:18;0.60;;;0.60;;
10523;SDS011;5310;48.638;9.060;2023-04-24T13:18:37;0.60;;;0.60;;
10523;SDS011;5310;48.638;9.060;2023-04-24T13:21:31;0.50;;;0.50;;
10523;SDS011;5310;48.638;9.060;2023-04-24T13:23:57;0.60;;;0.60;;
10523;SDS011;5310;48.638;9.060;2023-04-24T13:26:24;0.50;;;0.50;;
10523;SDS011;5310;48.638;9.060;2023-04-24T13:28:50;0.50;;;0.50;;
10523;SDS011;5310;48.638;9.060;2023-04-24T13:31:16;0.50;;;0.50;;
10523;SDS011;5310;48.638;9.060;2023-04-24T13:33:42;0.50;;;0.50;;
10523;SDS011;5310;48.638;9.060;2023-04-24T13:36:08;0.50;;;0.50;;
10523;SDS011;5310;48.638;9.060;2023-04-24T13:38:34;0.50;;;0.50;;
10523;SDS011;5310;48.638;9.060;2023-04-24T13:41:00;0.50;;;0.50;;
10523;SDS011;5310;48.638;9.060;2023-04-24T13:43:26;0.60;;;0.60;;
10523;SDS011;5310;48.638;9.060;2023-04-24T13:45:52;0.50;;;0.50;;
10523;SDS011;5310;48.638;9.060;2023-04-24T13:48:18;0.50;;;0.50;;
10523;SDS011;5310;48.638;9.060;2023-04-24T13:50:45;0.50;;;0.50;;
10523;SDS011;5310;48.638;9.060;2023-04-24T13:53:13;0.50;;;0.50;;
10523;SDS011;5310;48.638;9.060;2023-04-24T13:55:39;0.50;;;0.50;;
10523;SDS011;5310;48.638;9.060;2023-04-24T13:58:05;0.50;;;0.50;;
10523;SDS011;5310;48.638;9.060;2023-04-24T14:00:31;0.50;;;0.50;;
10523;SDS011;5310;48.638;9.060;2023-04-24T14:02:57;0.50;;;0.50;;
10523;SDS011;5310;48.638;9.060;2023-04-24T14:05:23;0.60;;;0.60;;
10523;SDS011;5310;48.638;9.060;2023-04-24T14:07:50;0.40;;;0.40;;
10523;SDS011;5310;48.638;9.060;2023-04-24T14:10:15;0.70;;;0.70;;
10523;SDS011;5310;48.638;9.060;2023-04-24T14:12:41;0.50;;;0.50;;
10523;SDS011;5310;48.638;9.060;2023-04-24T14:15:07;0.53;;;0.53;;
10523;SDS011;5310;48.638;9.060;2023-04-24T14:17:34;0.50;;;0.50;;
10523;SDS011;5310;48.638;9.060;2023-04-24T14:20:00;0.60;;;0.60;;
10523;SDS011;5310;48.638;9.060;2023-04-24T14:22:26;0.50;;;0.50;;
10523;SDS011;5310;48.638;9.060;2023-04-24T14:24:52;0.60;;;0.60;;
10523;SDS011;5310;48.638;9.060;2023-04-24T14:27:18;0.60;;;0.60;;
10523;SDS011;5310;48.638;9.060;2023-04-24T14:29:44;0.50;;;0.50;;
10523;SDS011;5310;48.638;9.060;2023-04-24T14:32:10;0.50;;;0.50;;
10523;SDS011;5310;48.638;9.060;2023-04-24T14:34:36;0.50;;;0.50;;
10523;SDS011;5310;48.638;9.060;2023-04-24T14:37:02;0.50;;;0.50;;
10523;SDS011;5310;48.638;9.060;2023-04-24T14:39:28;0.67;;;0.67;;
10523;SDS011;5310;48.638;9.060;2023-04-24T14:41:53;0.50;;;0.50;;
10523;SDS011;5310;48.638;9.060;2023-04-24T14:44:20;0.50;;;0.50;;
10523;SDS011;5310;48.638;9.060;2023-04-24T14:46:46;0.50;;;0.50;;
10523;SDS011;5310;48.638;9.060;2023-04-24T14:49:12;0.50;;;0.50;;
10523;SDS011;5310;48.638;9.060;2023-04-24T14:51:38;0.60;;;0.60;;
10523;SDS011;5310;48.638;9.060;2023-04-24T14:54:03;0.60;;;0.60;;
10523;SDS011;5310;48.638;9.060;2023-04-24T14:56:29;0.70;;;0.70;;
10523;SDS011;5310;48.638;9.060;2023-04-24T14:58:55;0.50;;;0.50;;
10523;SDS011;5310;48.638;9.060;2023-04-24T15:01:21;0.60;;;0.60;;
10523;SDS011;5310;48.638;9.060;2023-04-24T15:03:47;0.50;;;0.50;;
10523;SDS011;5310;48.638;9.060;2023-04-24T15:06:13;0.50;;;0.50;;
10523;SDS011;5310;48.638;9.060;2023-04-24T15:08:39;0.50;;;0.50;;
10523;SDS011;5310;48.638;9.060;2023-04-24T15:11:04;0.50;;;0.50;;